Time;durP1;ratioP1;P1;durP2;ratioP2;P2;SDS_P1;SDS_P2;PMS_P1;PMS_P2;Temp;Humidity;BMP_temperature;BMP_pressure;BME280_temperature;BME280_humidity;BME280_pressure;Samples;Min_cycle;Max_cycle;Signal;HPM_P1;HPM_P2
2022/12/14 00:02:14;;;;;;;;;;;3.50;99.90;;;;;;5011585;28;19928;-78
2022/12/14 00:04:40;;;;;;;;;;;3.60;99.90;;;;;;5011799;28;19944;-76
2022/12/14 00:07:05;;;;;;;;;;;3.60;99.90;;;;;;5009647;28;19964;-78
2022/12/14 00:09:31;;;;;;;;;;;3.50;99.90;;;;;;5011282;28;19913;-78
2022/12/14 00:11:57;;;;;;;;;;;3.60;99.90;;;;;;5010375;28;19932;-78
2022/12/14 00:14:22;;;;;;;;;;;3.50;99.90;;;;;;5011135;28;20348;-78
2022/12/14 00:16:48;;;;;;;;;;;3.60;99.90;;;;;;5011190;28;19980;-77
2022/12/14 00:19:14;;;;;;;;;;;3.60;99.90;;;;;;5010844;28;20369;-79
2022/12/14 00:21:40;;;;;;;;;;;3.50;99.90;;;;;;5011019;28;20381;-78
2022/12/14 00:24:05;;;;;;;;;;;3.50;99.90;;;;;;5011189;28;20000;-77
2022/12/14 00:26:31;;;;;;;;;;;3.50;99.90;;;;;;5009418;28;19983;-77
2022/12/14 00:28:58;;;;;;;;;;;3.50;99.90;;;;;;5011116;28;19917;-77
2022/12/14 00:31:23;;;;;;;;;;;3.50;99.90;;;;;;5010920;28;19910;-78
2022/12/14 00:33:49;;;;;;;;;;;3.40;99.90;;;;;;5011673;28;20016;-78
2022/12/14 00:36:15;;;;;;;;;;;3.40;99.90;;;;;;5010814;28;20011;-78
2022/12/14 00:38:41;;;;;;;;;;;3.40;99.90;;;;;;5011017;28;19909;-78
2022/12/14 00:41:06;;;;;;;;;;;3.50;99.90;;;;;;5011251;28;20320;-78
2022/12/14 00:43:32;;;;;;;;;;;3.50;99.90;;;;;;5011374;28;19996;-78
2022/12/14 00:45:58;;;;;;;;;;;3.60;99.90;;;;;;5009891;28;19996;-78
2022/12/14 00:48:24;;;;;;;;;;;3.60;99.90;;;;;;5011028;28;19913;-78
2022/12/14 00:50:50;;;;;;;;;;;3.50;99.90;;;;;;5011360;28;20000;-78
2022/12/14 00:53:16;;;;;;;;;;;3.50;99.90;;;;;;5011091;28;19909;-79
2022/12/14 00:55:43;;;;;;;;;;;3.50;99.90;;;;;;5011056;28;19910;-78
2022/12/14 00:58:09;;;;;;;;;;;3.50;99.90;;;;;;5010809;28;19909;-79
2022/12/14 01:00:35;;;;;;;;;;;3.50;99.90;;;;;;5010303;28;20069;-79
2022/12/14 01:03:01;;;;;;;;;;;3.40;99.90;;;;;;5010945;28;19991;-79
2022/12/14 01:05:26;;;;;;;;;;;3.50;99.90;;;;;;5011205;28;20339;-78
2022/12/14 01:07:52;;;;;;;;;;;3.50;99.90;;;;;;5010968;28;19999;-79
2022/12/14 01:10:17;;;;;;;;;;;3.60;99.90;;;;;;5012094;28;19913;-79
2022/12/14 01:12:43;;;;;;;;;;;3.60;99.90;;;;;;5013249;28;19910;-79
2022/12/14 01:15:09;;;;;;;;;;;3.60;99.90;;;;;;5015181;28;19909;-79
2022/12/14 01:17:34;;;;;;;;;;;3.50;99.90;;;;;;5014448;28;20493;-78
2022/12/14 01:20:00;;;;;;;;;;;3.50;99.90;;;;;;5014670;28;20020;-79
2022/12/14 01:22:25;;;;;;;;;;;3.50;99.90;;;;;;5012927;28;19913;-78
2022/12/14 01:24:51;;;;;;;;;;;3.50;99.90;;;;;;5014841;28;19917;-79
2022/12/14 01:27:16;;;;;;;;;;;3.50;99.90;;;;;;5014023;28;19916;-82
2022/12/14 01:29:42;;;;;;;;;;;3.40;99.90;;;;;;5014562;28;19909;-79
2022/12/14 01:32:07;;;;;;;;;;;3.40;99.90;;;;;;5013901;28;19956;-79
2022/12/14 01:34:33;;;;;;;;;;;3.30;99.90;;;;;;5013598;28;20367;-78
2022/12/14 01:36:58;;;;;;;;;;;3.30;99.90;;;;;;5014558;28;19982;-78
2022/12/14 01:39:24;;;;;;;;;;;3.20;99.90;;;;;;5013939;28;19973;-79
2022/12/14 01:41:53;;;;;;;;;;;3.20;99.90;;;;;;5014470;28;19923;-79
2022/12/14 01:44:19;;;;;;;;;;;3.20;99.90;;;;;;5013722;28;19996;-80
2022/12/14 01:46:46;;;;;;;;;;;3.10;99.90;;;;;;5014309;28;19953;-79
2022/12/14 01:49:19;;;;;;;;;;;3.00;99.90;;;;;;5013731;28;20298;-79
2022/12/14 01:51:49;;;;;;;;;;;3.00;99.90;;;;;;5014110;28;19909;-79
2022/12/14 01:54:15;;;;;;;;;;;3.00;99.90;;;;;;5014337;28;19932;-77
2022/12/14 01:56:42;;;;;;;;;;;2.90;99.90;;;;;;5016198;28;19909;-77
2022/12/14 01:59:11;;;;;;;;;;;2.90;99.90;;;;;;5015790;28;19921;-77
2022/12/14 02:01:36;;;;;;;;;;;2.90;99.90;;;;;;5016013;28;19968;-78
2022/12/14 02:04:03;;;;;;;;;;;2.80;99.90;;;;;;5016840;28;19913;-77
2022/12/14 02:06:34;;;;;;;;;;;2.70;99.90;;;;;;5015831;28;20306;-78
2022/12/14 02:09:03;;;;;;;;;;;2.70;99.90;;;;;;5016278;28;19909;-78
2022/12/14 02:11:43;;;;;;;;;;;2.70;99.90;;;;;;5014199;28;19913;-77
2022/12/14 02:14:08;;;;;;;;;;;2.60;99.90;;;;;;5013867;28;19917;-78
2022/12/14 02:16:34;;;;;;;;;;;2.60;99.90;;;;;;5013347;28;19909;-77
2022/12/14 02:19:00;;;;;;;;;;;2.60;99.90;;;;;;5016387;28;20009;-78
2022/12/14 02:21:58;;;;;;;;;;;2.60;99.90;;;;;;5012320;28;19929;-78
2022/12/14 02:24:23;;;;;;;;;;;2.50;99.90;;;;;;4990381;28;19972;-79
2022/12/14 02:26:52;;;;;;;;;;;2.50;99.90;;;;;;5013415;28;19914;-78
2022/12/14 02:29:30;;;;;;;;;;;2.50;99.90;;;;;;5013559;28;19913;-78
2022/12/14 02:32:16;;;;;;;;;;;2.50;99.90;;;;;;5013843;28;19913;-78
2022/12/14 02:35:00;;;;;;;;;;;2.50;99.90;;;;;;5012883;28;19910;-78
2022/12/14 02:37:37;;;;;;;;;;;2.40;99.90;;;;;;5012646;28;19960;-78
2022/12/14 02:40:27;;;;;;;;;;;2.50;99.90;;;;;;5012976;28;20382;-78
2022/12/14 02:43:01;;;;;;;;;;;2.40;99.90;;;;;;5012785;28;20343;-78
2022/12/14 02:45:33;;;;;;;;;;;2.40;99.90;;;;;;5011471;28;20244;-76
2022/12/14 02:48:01;;;;;;;;;;;2.40;99.90;;;;;;5013063;28;19910;-76
2022/12/14 02:50:29;;;;;;;;;;;2.40;99.90;;;;;;5012225;28;19909;-77
2022/12/14 02:53:03;;;;;;;;;;;2.40;99.90;;;;;;5012911;28;19917;-77
2022/12/14 02:55:32;;;;;;;;;;;2.40;99.90;;;;;;5012509;28;19920;-76
2022/12/14 02:58:13;;;;;;;;;;;2.40;99.90;;;;;;5012547;28;19917;-77
2022/12/14 03:00:39;;;;;;;;;;;2.40;99.90;;;;;;5012755;28;19913;-78
2022/12/14 03:03:05;;;;;;;;;;;2.40;99.90;;;;;;5012622;28;20322;-77
2022/12/14 03:05:30;;;;;;;;;;;2.50;99.90;;;;;;5012849;28;20271;-77
2022/12/14 03:08:01;;;;;;;;;;;2.60;99.90;;;;;;5012746;28;19910;-77
2022/12/14 03:10:29;;;;;;;;;;;2.70;99.90;;;;;;5012813;28;20039;-78
2022/12/14 03:13:21;;;;;;;;;;;2.70;99.90;;;;;;5012520;28;19916;-77
2022/12/14 03:15:51;;;;;;;;;;;2.60;99.90;;;;;;5008525;28;19916;-77
2022/12/14 03:18:18;;;;;;;;;;;2.60;99.90;;;;;;5012453;28;20055;-78
2022/12/14 03:20:46;;;;;;;;;;;2.70;99.90;;;;;;5012289;28;19909;-77
2022/12/14 03:23:13;;;;;;;;;;;2.70;99.90;;;;;;5012492;28;19917;-78
2022/12/14 03:25:55;;;;;;;;;;;2.70;99.90;;;;;;5012373;28;19917;-77
2022/12/14 03:28:34;;;;;;;;;;;2.70;99.90;;;;;;5012549;28;20307;-78
2022/12/14 03:31:07;;;;;;;;;;;2.70;99.90;;;;;;5012340;28;20362;-78
2022/12/14 03:33:34;;;;;;;;;;;2.80;99.90;;;;;;5011573;28;19910;-78
2022/12/14 03:36:03;;;;;;;;;;;2.80;99.90;;;;;;5012161;28;19952;-77
2022/12/14 03:38:32;;;;;;;;;;;2.80;99.90;;;;;;5011914;28;19920;-78
2022/12/14 03:41:04;;;;;;;;;;;2.70;99.90;;;;;;5012758;28;20016;-78
2022/12/14 03:43:40;;;;;;;;;;;2.80;99.90;;;;;;5011901;28;19917;-78
2022/12/14 03:46:05;;;;;;;;;;;2.80;99.90;;;;;;5012452;28;19909;-78
2022/12/14 03:48:34;;;;;;;;;;;2.80;99.90;;;;;;5012222;28;19955;-77
2022/12/14 03:51:20;;;;;;;;;;;2.90;99.90;;;;;;5012087;28;20323;-77
2022/12/14 03:53:57;;;;;;;;;;;2.80;99.90;;;;;;5011365;28;20053;-78
2022/12/14 03:56:28;;;;;;;;;;;2.90;99.90;;;;;;5012015;28;20004;-77
2022/12/14 03:59:05;;;;;;;;;;;2.80;99.90;;;;;;5011715;28;19909;-77
2022/12/14 04:01:33;;;;;;;;;;;2.80;99.90;;;;;;5011588;28;19921;-78
2022/12/14 04:03:59;;;;;;;;;;;2.80;99.90;;;;;;5012015;28;19918;-77
2022/12/14 04:06:31;;;;;;;;;;;2.80;99.90;;;;;;5011822;28;19916;-80
2022/12/14 04:08:56;;;;;;;;;;;2.80;99.90;;;;;;5011591;28;20287;-79
2022/12/14 04:20:27;;;;;;;;;;;2.70;99.90;;;;;;4970747;28;19921;-77
2022/12/14 04:22:56;;;;;;;;;;;2.70;99.90;;;;;;5001816;28;19913;-78
2022/12/14 04:31:02;;;;;;;;;;;2.90;99.90;;;;;;5012127;28;19940;-76
2022/12/14 04:33:46;;;;;;;;;;;2.90;99.90;;;;;;5010291;28;19909;-80
2022/12/14 04:36:28;;;;;;;;;;;3.00;99.90;;;;;;5011657;28;19929;-77
2022/12/14 04:38:57;;;;;;;;;;;3.00;99.90;;;;;;5011560;28;19910;-76
2022/12/14 04:41:25;;;;;;;;;;;3.00;99.90;;;;;;5011347;28;20294;-77
2022/12/14 04:43:54;;;;;;;;;;;3.00;99.90;;;;;;5009335;28;21848;-76
2022/12/14 04:46:23;;;;;;;;;;;3.00;99.90;;;;;;5014740;28;19953;-76
2022/12/14 04:48:53;;;;;;;;;;;3.00;99.90;;;;;;5015130;28;19915;-76
2022/12/14 04:51:24;;;;;;;;;;;3.00;99.90;;;;;;5015329;28;20386;-77
2022/12/14 04:53:54;;;;;;;;;;;3.10;99.90;;;;;;5014888;28;20562;-76
2022/12/14 04:56:26;;;;;;;;;;;3.00;99.90;;;;;;5015269;28;19914;-76
2022/12/14 04:58:52;;;;;;;;;;;3.10;99.90;;;;;;5015270;28;20012;-76
2022/12/14 05:01:33;;;;;;;;;;;3.10;99.90;;;;;;5015244;28;19937;-76
2022/12/14 05:04:08;;;;;;;;;;;3.10;99.90;;;;;;5013667;28;19931;-77
2022/12/14 05:06:56;;;;;;;;;;;3.00;99.90;;;;;;5014358;28;20370;-77
2022/12/14 05:09:30;;;;;;;;;;;3.00;99.90;;;;;;5014980;28;19910;-76
2022/12/14 05:12:05;;;;;;;;;;;3.00;99.90;;;;;;5014762;28;19959;-77
2022/12/14 05:14:37;;;;;;;;;;;2.90;99.90;;;;;;5014679;28;20347;-80
2022/12/14 05:17:04;;;;;;;;;;;3.00;99.90;;;;;;5014915;28;19916;-78
2022/12/14 05:19:29;;;;;;;;;;;3.00;99.90;;;;;;5014782;28;20008;-81
2022/12/14 05:21:55;;;;;;;;;;;3.00;99.90;;;;;;5014450;28;19960;-76
2022/12/14 05:24:21;;;;;;;;;;;3.00;99.90;;;;;;5014668;28;20353;-78
2022/12/14 05:26:46;;;;;;;;;;;3.10;99.90;;;;;;5014179;28;20260;-77
2022/12/14 05:29:12;;;;;;;;;;;3.10;99.90;;;;;;5014912;28;19910;-76
2022/12/14 05:31:39;;;;;;;;;;;3.20;99.90;;;;;;5014538;28;20004;-76
2022/12/14 05:34:05;;;;;;;;;;;3.30;99.90;;;;;;5014735;28;19928;-75
2022/12/14 05:36:30;;;;;;;;;;;3.30;99.90;;;;;;5015280;28;19929;-78
2022/12/14 05:38:56;;;;;;;;;;;3.40;99.90;;;;;;5014275;28;20363;-76
2022/12/14 05:41:21;;;;;;;;;;;3.50;99.90;;;;;;5014909;28;19988;-76
2022/12/14 05:43:47;;;;;;;;;;;3.50;99.90;;;;;;5014238;28;19983;-76
2022/12/14 05:46:12;;;;;;;;;;;3.50;99.90;;;;;;5014947;28;20342;-76
2022/12/14 05:48:38;;;;;;;;;;;3.50;99.90;;;;;;5012539;28;19909;-77
2022/12/14 05:51:08;;;;;;;;;;;3.50;99.90;;;;;;5014344;28;19913;-77
2022/12/14 05:53:34;;;;;;;;;;;3.50;99.90;;;;;;5013884;28;19909;-80
2022/12/14 05:55:59;;;;;;;;;;;3.40;99.90;;;;;;5014330;28;20004;-76
2022/12/14 05:58:25;;;;;;;;;;;3.40;99.90;;;;;;5014161;28;20321;-76
2022/12/14 06:00:51;;;;;;;;;;;3.30;99.90;;;;;;5013314;28;19918;-76
2022/12/14 06:03:17;;;;;;;;;;;3.30;99.90;;;;;;5013822;28;19913;-76
2022/12/14 06:05:43;;;;;;;;;;;3.20;99.90;;;;;;5013691;28;19932;-76
2022/12/14 06:08:09;;;;;;;;;;;3.20;99.90;;;;;;5014197;28;20315;-76
2022/12/14 06:10:34;;;;;;;;;;;3.20;99.90;;;;;;5029750;28;19948;-80
2022/12/14 06:13:00;;;;;;;;;;;3.20;99.90;;;;;;5036854;28;19955;-77
2022/12/14 06:15:27;;;;;;;;;;;3.20;99.90;;;;;;5036784;28;19913;-77
2022/12/14 06:17:52;;;;;;;;;;;3.20;99.90;;;;;;5036610;28;19940;-77
2022/12/14 06:20:18;;;;;;;;;;;3.30;99.90;;;;;;5036310;28;19930;-77
2022/12/14 06:22:43;;;;;;;;;;;3.30;99.90;;;;;;5025461;28;19936;-77
2022/12/14 06:25:09;;;;;;;;;;;3.30;99.90;;;;;;5013438;28;19920;-76
2022/12/14 06:27:35;;;;;;;;;;;3.30;99.90;;;;;;5014203;28;19944;-79
2022/12/14 06:30:00;;;;;;;;;;;3.20;99.90;;;;;;5013407;28;20004;-76
2022/12/14 06:32:26;;;;;;;;;;;3.30;99.90;;;;;;5014531;28;19921;-77
2022/12/14 06:34:51;;;;;;;;;;;3.30;99.90;;;;;;5013181;28;20266;-77
2022/12/14 06:37:17;;;;;;;;;;;3.20;99.90;;;;;;5013551;28;19979;-76
2022/12/14 06:39:43;;;;;;;;;;;3.20;99.90;;;;;;5013285;28;20359;-78
2022/12/14 06:42:09;;;;;;;;;;;3.20;99.90;;;;;;5011786;28;19920;-77
2022/12/14 06:44:34;;;;;;;;;;;3.20;99.90;;;;;;5012928;28;19956;-77
2022/12/14 06:47:00;;;;;;;;;;;3.10;99.90;;;;;;5011808;28;20415;-77
2022/12/14 06:49:26;;;;;;;;;;;3.10;99.90;;;;;;5013622;28;20015;-77
2022/12/14 06:51:51;;;;;;;;;;;2.90;99.90;;;;;;5013054;28;20271;-77
2022/12/14 06:54:17;;;;;;;;;;;2.80;99.90;;;;;;5013430;28;19925;-76
2022/12/14 06:56:43;;;;;;;;;;;2.70;99.90;;;;;;5013340;28;19909;-77
2022/12/14 06:59:09;;;;;;;;;;;2.60;99.90;;;;;;5013397;28;19918;-77
2022/12/14 07:01:35;;;;;;;;;;;2.60;99.90;;;;;;5012073;28;19913;-77
2022/12/14 07:04:01;;;;;;;;;;;2.60;99.90;;;;;;5012785;28;19909;-77
2022/12/14 07:06:27;;;;;;;;;;;2.60;99.90;;;;;;5011477;28;19921;-77
2022/12/14 07:08:54;;;;;;;;;;;2.60;99.90;;;;;;5011718;28;19932;-77
2022/12/14 07:11:19;;;;;;;;;;;2.60;99.90;;;;;;5013431;28;19960;-78
2022/12/14 07:13:45;;;;;;;;;;;2.60;99.90;;;;;;5012281;28;20244;-78
2022/12/14 07:16:15;;;;;;;;;;;2.60;99.90;;;;;;5012902;28;20416;-77
2022/12/14 07:18:40;;;;;;;;;;;2.70;99.90;;;;;;5012588;28;19909;-79
2022/12/14 07:21:09;;;;;;;;;;;2.70;99.90;;;;;;5012633;28;20317;-77
2022/12/14 07:23:36;;;;;;;;;;;2.70;99.90;;;;;;5012711;28;19914;-77
2022/12/14 07:26:02;;;;;;;;;;;2.70;99.90;;;;;;5012076;28;19917;-77
2022/12/14 07:28:28;;;;;;;;;;;2.70;99.90;;;;;;5012478;28;20216;-78
2022/12/14 07:30:54;;;;;;;;;;;2.60;99.90;;;;;;5011599;28;19910;-78
2022/12/14 07:33:19;;;;;;;;;;;2.60;99.90;;;;;;5010930;28;20019;-78
2022/12/14 07:35:46;;;;;;;;;;;2.50;99.90;;;;;;5011766;28;20422;-77
2022/12/14 07:38:11;;;;;;;;;;;2.40;99.90;;;;;;5012082;28;19910;-77
2022/12/14 07:40:37;;;;;;;;;;;2.40;99.90;;;;;;5012073;28;19917;-77
2022/12/14 07:43:02;;;;;;;;;;;2.30;99.90;;;;;;5011633;28;19917;-77
2022/12/14 07:45:29;;;;;;;;;;;2.30;99.90;;;;;;5011500;28;19910;-77
2022/12/14 07:47:55;;;;;;;;;;;2.20;99.90;;;;;;5011243;28;20355;-77
2022/12/14 07:50:20;;;;;;;;;;;2.20;99.90;;;;;;5012001;28;19929;-77
2022/12/14 07:52:46;;;;;;;;;;;2.20;99.90;;;;;;5011265;28;20382;-77
2022/12/14 07:55:11;;;;;;;;;;;2.20;99.90;;;;;;5011941;28;20323;-76
2022/12/14 07:57:37;;;;;;;;;;;2.20;99.90;;;;;;5011911;28;19940;-77
2022/12/14 08:00:03;;;;;;;;;;;2.30;99.90;;;;;;5010700;28;20318;-76
2022/12/14 08:02:28;;;;;;;;;;;2.30;99.90;;;;;;5011523;28;19921;-76
2022/12/14 08:04:54;;;;;;;;;;;2.30;99.90;;;;;;5011468;28;19910;-76
2022/12/14 08:07:19;;;;;;;;;;;2.50;99.90;;;;;;5010367;28;20254;-76
2022/12/14 08:09:46;;;;;;;;;;;2.60;99.90;;;;;;5011293;28;20010;-77
2022/12/14 08:12:11;;;;;;;;;;;2.70;99.90;;;;;;5011928;28;20275;-77
2022/12/14 08:14:37;;;;;;;;;;;2.90;99.90;;;;;;5011441;28;19909;-76
2022/12/14 08:17:03;;;;;;;;;;;3.00;99.90;;;;;;5011536;28;20588;-77
2022/12/14 08:19:28;;;;;;;;;;;3.00;99.90;;;;;;5013251;28;19956;-77
2022/12/14 08:21:54;;;;;;;;;;;3.10;99.90;;;;;;5013824;28;19921;-78
2022/12/14 08:24:19;;;;;;;;;;;3.20;99.90;;;;;;5015824;28;20311;-77
2022/12/14 08:26:45;;;;;;;;;;;3.30;99.90;;;;;;5015165;28;20007;-77
2022/12/14 08:29:13;;;;;;;;;;;3.40;99.90;;;;;;5015324;28;19916;-78
2022/12/14 08:31:39;;;;;;;;;;;3.40;99.90;;;;;;5015537;28;19917;-78
2022/12/14 08:34:04;;;;;;;;;;;3.50;99.90;;;;;;5013526;28;19972;-79
2022/12/14 08:36:32;;;;;;;;;;;3.40;99.90;;;;;;5014931;28;20104;-78
2022/12/14 08:38:59;;;;;;;;;;;3.40;99.90;;;;;;5015352;28;20321;-78
2022/12/14 08:41:25;;;;;;;;;;;3.50;99.90;;;;;;5015204;28;20390;-78
2022/12/14 08:43:53;;;;;;;;;;;3.40;99.90;;;;;;5014765;28;20394;-77
2022/12/14 08:46:19;;;;;;;;;;;3.40;99.90;;;;;;5014881;28;20283;-78
2022/12/14 08:48:44;;;;;;;;;;;3.40;99.90;;;;;;5014852;28;19917;-83
2022/12/14 08:51:10;;;;;;;;;;;3.40;99.90;;;;;;5014873;28;19909;-78
2022/12/14 08:53:36;;;;;;;;;;;3.30;99.90;;;;;;5014838;28;20339;-78
2022/12/14 08:56:07;;;;;;;;;;;3.30;99.90;;;;;;5012799;28;20251;-77
2022/12/14 08:58:33;;;;;;;;;;;3.30;99.90;;;;;;5013568;28;19917;-78
2022/12/14 09:01:03;;;;;;;;;;;3.30;99.90;;;;;;5014084;28;19932;-76
2022/12/14 09:03:28;;;;;;;;;;;3.30;99.90;;;;;;5013018;28;19972;-76
2022/12/14 09:05:54;;;;;;;;;;;3.20;99.90;;;;;;5013754;28;19954;-77
2022/12/14 09:08:21;;;;;;;;;;;3.20;99.90;;;;;;5014193;28;19921;-77
2022/12/14 09:10:50;;;;;;;;;;;3.10;99.90;;;;;;5013778;28;19909;-78
2022/12/14 09:13:15;;;;;;;;;;;2.90;99.90;;;;;;5014096;28;19910;-77
2022/12/14 09:15:41;;;;;;;;;;;2.80;99.90;;;;;;5014181;28;19931;-78
2022/12/14 09:18:07;;;;;;;;;;;2.70;99.90;;;;;;5013773;28;19961;-78
2022/12/14 09:20:33;;;;;;;;;;;2.60;99.90;;;;;;5014661;28;19922;-77
2022/12/14 09:22:58;;;;;;;;;;;2.60;99.90;;;;;;5014074;28;20009;-77
2022/12/14 09:25:24;;;;;;;;;;;2.50;99.90;;;;;;5014392;28;19909;-76
2022/12/14 09:27:49;;;;;;;;;;;2.50;99.90;;;;;;5013999;28;19913;-78
2022/12/14 09:30:15;;;;;;;;;;;2.50;99.90;;;;;;5013258;28;19917;-77
2022/12/14 09:32:43;;;;;;;;;;;2.50;99.90;;;;;;5014187;28;20004;-77
2022/12/14 09:35:09;;;;;;;;;;;2.50;99.90;;;;;;5014161;28;20039;-78
2022/12/14 09:37:34;;;;;;;;;;;2.50;99.90;;;;;;5014448;28;20010;-78
2022/12/14 09:40:00;;;;;;;;;;;2.60;99.90;;;;;;5014021;28;20275;-78
2022/12/14 09:42:32;;;;;;;;;;;2.60;99.90;;;;;;5014188;28;19967;-78
2022/12/14 09:45:16;;;;;;;;;;;2.60;99.90;;;;;;5012602;28;20394;-78
2022/12/14 09:47:51;;;;;;;;;;;2.60;99.90;;;;;;5014590;28;20367;-78
2022/12/14 09:50:18;;;;;;;;;;;2.60;99.90;;;;;;5014550;28;19995;-77
2022/12/14 09:52:50;;;;;;;;;;;2.70;99.90;;;;;;5014690;28;19956;-77
2022/12/14 09:55:25;;;;;;;;;;;2.70;99.90;;;;;;5014403;28;19913;-77
2022/12/14 09:58:11;;;;;;;;;;;2.70;99.90;;;;;;5013878;28;19914;-77
2022/12/14 10:00:42;;;;;;;;;;;2.70;99.90;;;;;;5013581;28;19913;-78
2022/12/14 10:03:08;;;;;;;;;;;2.80;99.90;;;;;;5013734;28;20086;-79
2022/12/14 10:05:34;;;;;;;;;;;2.80;99.90;;;;;;5014647;28;20012;-80
2022/12/14 10:08:07;;;;;;;;;;;2.80;99.90;;;;;;5012279;28;19984;-78
2022/12/14 10:10:48;;;;;;;;;;;2.80;99.90;;;;;;5015066;28;20331;-78
2022/12/14 10:13:33;;;;;;;;;;;2.80;99.90;;;;;;5014499;28;20016;-78
2022/12/14 10:16:05;;;;;;;;;;;2.80;99.90;;;;;;5014042;28;20360;-78
2022/12/14 10:18:33;;;;;;;;;;;2.90;99.90;;;;;;5013889;28;19909;-77
2022/12/14 10:21:09;;;;;;;;;;;2.90;99.90;;;;;;5013073;28;19913;-78
2022/12/14 10:23:35;;;;;;;;;;;2.80;99.90;;;;;;5012989;28;19914;-78
2022/12/14 10:26:06;;;;;;;;;;;2.80;99.90;;;;;;5011439;28;19917;-80
2022/12/14 10:28:42;;;;;;;;;;;2.80;99.90;;;;;;5013889;28;19913;-80
2022/12/14 10:31:10;;;;;;;;;;;2.90;99.90;;;;;;5013183;28;19905;-79
2022/12/14 10:33:37;;;;;;;;;;;2.80;99.90;;;;;;5013698;28;19917;-78
2022/12/14 10:36:08;;;;;;;;;;;2.80;99.90;;;;;;5012973;28;19975;-79
2022/12/14 10:38:33;;;;;;;;;;;2.80;99.90;;;;;;5012195;28;19909;-78
2022/12/14 10:41:04;;;;;;;;;;;2.80;99.90;;;;;;5012399;28;19936;-77
2022/12/14 10:43:44;;;;;;;;;;;2.90;99.90;;;;;;5012280;28;20023;-78
2022/12/14 10:46:21;;;;;;;;;;;2.90;99.90;;;;;;4995761;28;20232;-78
2022/12/14 10:49:01;;;;;;;;;;;2.90;99.90;;;;;;5012721;28;20257;-79
2022/12/14 10:51:32;;;;;;;;;;;2.90;99.90;;;;;;5013209;28;19910;-77
2022/12/14 10:54:18;;;;;;;;;;;3.00;99.90;;;;;;5012612;28;19967;-77
2022/12/14 10:56:44;;;;;;;;;;;3.00;99.90;;;;;;5012325;28;19909;-78
2022/12/14 10:59:10;;;;;;;;;;;3.00;99.90;;;;;;5012108;28;20468;-78
2022/12/14 11:01:35;;;;;;;;;;;3.10;99.90;;;;;;5012580;28;19919;-77
2022/12/14 11:04:01;;;;;;;;;;;3.10;99.90;;;;;;5012572;28;20008;-79
2022/12/14 11:06:26;;;;;;;;;;;3.10;99.90;;;;;;5014033;28;20362;-76
2022/12/14 11:08:52;;;;;;;;;;;3.10;99.90;;;;;;5014267;28;20001;-78
2022/12/14 11:11:22;;;;;;;;;;;3.10;99.90;;;;;;5014183;28;19909;-77
2022/12/14 11:13:52;;;;;;;;;;;3.10;99.90;;;;;;5013761;28;19909;-77
2022/12/14 11:16:23;;;;;;;;;;;3.10;99.90;;;;;;5012952;28;19910;-78
2022/12/14 11:18:56;;;;;;;;;;;3.10;99.90;;;;;;5013743;28;19910;-78
2022/12/14 11:21:27;;;;;;;;;;;3.10;99.90;;;;;;5013995;28;19920;-78
2022/12/14 11:23:53;;;;;;;;;;;3.10;99.90;;;;;;5012436;28;19914;-78
2022/12/14 11:26:24;;;;;;;;;;;3.10;99.90;;;;;;5012657;28;20063;-77
2022/12/14 11:28:54;;;;;;;;;;;3.20;99.90;;;;;;5012946;28;19914;-82
2022/12/14 11:31:27;;;;;;;;;;;3.20;99.90;;;;;;5011854;28;19913;-78
2022/12/14 11:33:54;;;;;;;;;;;3.30;99.90;;;;;;5012011;28;20385;-81
2022/12/14 11:36:32;;;;;;;;;;;3.40;99.90;;;;;;5011002;28;19948;-78
2022/12/14 11:39:04;;;;;;;;;;;3.50;99.90;;;;;;5010710;28;19955;-77
2022/12/14 11:41:34;;;;;;;;;;;3.60;99.90;;;;;;5012691;28;19921;-77
2022/12/14 11:44:01;;;;;;;;;;;3.70;99.90;;;;;;5012773;28;19914;-79
2022/12/14 11:46:40;;;;;;;;;;;3.70;99.90;;;;;;5013521;28;20048;-77
2022/12/14 11:49:26;;;;;;;;;;;3.80;99.90;;;;;;5010639;28;19929;-78
2022/12/14 11:52:04;;;;;;;;;;;3.70;99.90;;;;;;5003734;28;20274;-82
2022/12/14 11:54:33;;;;;;;;;;;3.60;99.90;;;;;;5012365;28;20298;-77
2022/12/14 11:57:25;;;;;;;;;;;3.60;99.90;;;;;;5011553;28;19916;-78
2022/12/14 12:00:09;;;;;;;;;;;3.60;99.90;;;;;;5010063;28;19925;-77
2022/12/14 12:02:40;;;;;;;;;;;3.50;99.90;;;;;;5012115;28;20119;-78
2022/12/14 12:05:07;;;;;;;;;;;3.50;99.90;;;;;;5011789;28;19985;-76
2022/12/14 12:07:34;;;;;;;;;;;3.50;99.90;;;;;;5011863;28;19910;-77
2022/12/14 12:10:20;;;;;;;;;;;3.50;99.90;;;;;;5011227;28;19914;-79
2022/12/14 12:13:02;;;;;;;;;;;3.50;99.90;;;;;;5009870;28;19910;-77
2022/12/14 12:15:33;;;;;;;;;;;3.50;99.90;;;;;;5011263;28;19910;-77
2022/12/14 12:18:17;;;;;;;;;;;3.50;99.90;;;;;;5011338;28;20039;-78
2022/12/14 12:20:53;;;;;;;;;;;3.50;99.90;;;;;;5011177;28;20441;-77
2022/12/14 12:23:23;;;;;;;;;;;3.70;99.90;;;;;;5011074;28;19914;-77
2022/12/14 12:25:50;;;;;;;;;;;3.70;99.90;;;;;;5011351;28;19996;-77
2022/12/14 12:28:16;;;;;;;;;;;3.90;99.90;;;;;;5010942;28;19911;-78
2022/12/14 12:30:44;;;;;;;;;;;4.10;99.90;;;;;;5010946;28;19917;-77
2022/12/14 12:33:18;;;;;;;;;;;4.10;99.90;;;;;;5011180;28;20005;-78
2022/12/14 12:35:47;;;;;;;;;;;4.20;99.90;;;;;;5010400;28;19921;-77
2022/12/14 12:38:17;;;;;;;;;;;4.20;99.90;;;;;;5012524;28;20174;-81
2022/12/14 12:40:43;;;;;;;;;;;4.30;99.90;;;;;;5011573;28;19913;-80
2022/12/14 12:43:17;;;;;;;;;;;4.20;99.90;;;;;;5012083;28;20254;-81
2022/12/14 12:45:53;;;;;;;;;;;4.20;99.90;;;;;;5012697;28;19911;-81
2022/12/14 12:48:28;;;;;;;;;;;4.20;99.90;;;;;;5012361;28;19909;-80
2022/12/14 12:50:56;;;;;;;;;;;4.20;99.90;;;;;;5011593;28;20338;-82
2022/12/14 12:53:29;;;;;;;;;;;4.30;99.90;;;;;;5010696;28;19916;-80
2022/12/14 12:56:00;;;;;;;;;;;4.20;99.90;;;;;;5012032;28;20038;-82
2022/12/14 12:58:28;;;;;;;;;;;4.20;99.90;;;;;;5012280;28;20354;-80
2022/12/14 13:00:56;;;;;;;;;;;4.20;99.90;;;;;;5012131;28;20001;-81
2022/12/14 13:03:23;;;;;;;;;;;4.30;99.90;;;;;;5012699;28;19935;-80
2022/12/14 13:05:51;;;;;;;;;;;4.30;99.90;;;;;;5012622;28;20440;-81
2022/12/14 13:08:20;;;;;;;;;;;4.30;99.90;;;;;;5014550;28;19913;-80
2022/12/14 13:10:46;;;;;;;;;;;4.30;99.90;;;;;;5015499;28;19909;-80
2022/12/14 13:13:14;;;;;;;;;;;4.30;99.90;;;;;;5015432;28;19917;-80
2022/12/14 13:15:43;;;;;;;;;;;4.30;99.90;;;;;;5015614;28;20232;-80
2022/12/14 13:18:21;;;;;;;;;;;4.30;99.90;;;;;;5013877;28;20219;-79
2022/12/14 13:20:47;;;;;;;;;;;4.30;99.90;;;;;;5016190;28;19936;-80
2022/12/14 13:23:13;;;;;;;;;;;4.30;99.90;;;;;;5015642;28;19913;-80
2022/12/14 13:25:38;;;;;;;;;;;4.30;99.90;;;;;;5015339;28;19909;-80
2022/12/14 13:28:12;;;;;;;;;;;4.30;99.90;;;;;;5015056;28;20010;-81
2022/12/14 13:30:44;;;;;;;;;;;4.30;99.90;;;;;;5015656;28;20278;-80
2022/12/14 13:33:19;;;;;;;;;;;4.40;99.90;;;;;;5013066;28;20474;-80
2022/12/14 13:35:44;;;;;;;;;;;4.40;99.90;;;;;;5014909;28;20390;-78
2022/12/14 13:38:13;;;;;;;;;;;4.50;99.90;;;;;;5014499;28;19910;-80
2022/12/14 13:40:46;;;;;;;;;;;4.50;99.90;;;;;;5015099;28;19914;-80
2022/12/14 13:43:30;;;;;;;;;;;4.50;99.90;;;;;;5014116;28;19945;-81
2022/12/14 13:46:03;;;;;;;;;;;4.50;99.90;;;;;;5013405;28;19995;-81
2022/12/14 13:48:32;;;;;;;;;;;4.40;99.90;;;;;;5015134;28;19909;-79
2022/12/14 13:51:00;;;;;;;;;;;4.30;99.90;;;;;;5014249;28;20008;-81
2022/12/14 13:53:29;;;;;;;;;;;4.30;99.90;;;;;;5014825;28;19909;-80
2022/12/14 13:55:56;;;;;;;;;;;4.20;99.90;;;;;;5014771;28;20304;-81
2022/12/14 13:58:22;;;;;;;;;;;4.20;99.90;;;;;;5014046;28;20381;-82
2022/12/14 14:00:49;;;;;;;;;;;4.20;99.90;;;;;;5014502;28;19920;-80
2022/12/14 14:03:33;;;;;;;;;;;4.20;99.90;;;;;;5014027;28;19917;-82
2022/12/14 14:06:00;;;;;;;;;;;4.20;99.90;;;;;;5013706;28;19929;-81
2022/12/14 14:08:27;;;;;;;;;;;4.20;99.90;;;;;;5014399;28;19921;-80
2022/12/14 14:10:53;;;;;;;;;;;4.30;99.90;;;;;;5012732;28;19967;-81
2022/12/14 14:13:40;;;;;;;;;;;4.20;99.90;;;;;;5011661;28;19913;-81
2022/12/14 14:16:11;;;;;;;;;;;4.20;99.90;;;;;;4991870;28;19919;-82
2022/12/14 14:18:45;;;;;;;;;;;4.20;99.90;;;;;;5014567;28;19909;-81
2022/12/14 14:21:10;;;;;;;;;;;4.10;99.90;;;;;;5013890;28;19920;-81
2022/12/14 14:23:37;;;;;;;;;;;4.00;99.90;;;;;;5014234;28;19913;-82
2022/12/14 14:26:12;;;;;;;;;;;4.00;99.90;;;;;;5012940;28;19909;-82
2022/12/14 14:28:38;;;;;;;;;;;4.00;99.90;;;;;;5013378;28;19910;-80
2022/12/14 14:31:04;;;;;;;;;;;4.10;99.90;;;;;;5012648;28;20277;-81
2022/12/14 14:33:33;;;;;;;;;;;4.10;99.90;;;;;;5012111;28;19914;-81
2022/12/14 14:36:08;;;;;;;;;;;4.20;99.90;;;;;;5012679;28;20384;-81
2022/12/14 14:38:36;;;;;;;;;;;4.20;99.90;;;;;;5012754;28;20008;-80
2022/12/14 14:41:08;;;;;;;;;;;4.20;99.90;;;;;;5012325;28;19917;-81
2022/12/14 14:43:39;;;;;;;;;;;4.20;99.90;;;;;;5012895;28;19976;-79
2022/12/14 14:46:06;;;;;;;;;;;4.30;99.90;;;;;;5011883;28;19910;-80
2022/12/14 14:48:33;;;;;;;;;;;4.30;99.90;;;;;;5012711;28;19910;-79
2022/12/14 14:51:04;;;;;;;;;;;4.30;99.90;;;;;;5011314;28;20347;-80
2022/12/14 14:53:31;;;;;;;;;;;4.20;99.90;;;;;;5012819;28;20303;-79
2022/12/14 14:56:20;;;;;;;;;;;4.10;99.90;;;;;;5012491;28;20397;-80
2022/12/14 14:58:45;;;;;;;;;;;4.00;99.90;;;;;;5006881;28;20378;-80